sensor_id;sensor_type;location;lat;lon;timestamp;P1;durP1;ratioP1;P2;durP2;ratioP2
30874;SDS011;17581;43.222;27.924;2023-03-25T00:01:01;17.35;;;7.80;;
30874;SDS011;17581;43.222;27.924;2023-03-25T00:03:30;49.90;;;11.30;;
30874;SDS011;17581;43.222;27.924;2023-03-25T00:05:59;21.00;;;7.47;;
30874;SDS011;17581;43.222;27.924;2023-03-25T00:08:25;26.50;;;7.43;;
30874;SDS011;17581;43.222;27.924;2023-03-25T00:10:56;12.23;;;6.72;;
30874;SDS011;17581;43.222;27.924;2023-03-25T00:13:23;18.57;;;7.97;;
30874;SDS011;17581;43.222;27.924;2023-03-25T00:15:50;22.77;;;8.30;;
30874;SDS011;17581;43.222;27.924;2023-03-25T00:18:18;21.35;;;7.78;;
30874;SDS011;17581;43.222;27.924;2023-03-25T00:20:48;28.55;;;8.73;;
30874;SDS011;17581;43.222;27.924;2023-03-25T00:23:15;28.52;;;8.95;;
30874;SDS011;17581;43.222;27.924;2023-03-25T00:25:41;19.13;;;8.60;;
30874;SDS011;17581;43.222;27.924;2023-03-25T00:28:09;21.67;;;7.82;;
30874;SDS011;17581;43.222;27.924;2023-03-25T00:30:36;23.33;;;8.73;;
30874;SDS011;17581;43.222;27.924;2023-03-25T00:33:02;10.98;;;6.80;;
30874;SDS011;17581;43.222;27.924;2023-03-25T00:35:28;11.60;;;8.15;;
30874;SDS011;17581;43.222;27.924;2023-03-25T00:37:54;20.27;;;8.57;;
30874;SDS011;17581;43.222;27.924;2023-03-25T00:40:28;11.40;;;7.55;;
30874;SDS011;17581;43.222;27.924;2023-03-25T00:42:58;9.18;;;6.72;;
30874;SDS011;17581;43.222;27.924;2023-03-25T00:45:24;14.45;;;7.63;;
30874;SDS011;17581;43.222;27.924;2023-03-25T00:47:50;13.45;;;8.80;;
30874;SDS011;17581;43.222;27.924;2023-03-25T00:50:15;19.75;;;9.95;;
30874;SDS011;17581;43.222;27.924;2023-03-25T00:52:41;11.88;;;8.27;;
30874;SDS011;17581;43.222;27.924;2023-03-25T00:55:07;18.80;;;9.20;;
30874;SDS011;17581;43.222;27.924;2023-03-25T00:57:33;23.80;;;10.13;;
30874;SDS011;17581;43.222;27.924;2023-03-25T00:59:58;16.33;;;10.27;;
30874;SDS011;17581;43.222;27.924;2023-03-25T01:02:24;15.15;;;9.75;;
30874;SDS011;17581;43.222;27.924;2023-03-25T01:04:49;27.60;;;11.18;;
30874;SDS011;17581;43.222;27.924;2023-03-25T01:07:18;17.42;;;10.38;;
30874;SDS011;17581;43.222;27.924;2023-03-25T01:09:44;23.10;;;11.38;;
30874;SDS011;17581;43.222;27.924;2023-03-25T01:12:11;24.33;;;11.30;;
30874;SDS011;17581;43.222;27.924;2023-03-25T01:14:38;19.73;;;12.00;;
30874;SDS011;17581;43.222;27.924;2023-03-25T01:17:04;33.10;;;13.50;;
30874;SDS011;17581;43.222;27.924;2023-03-25T01:19:30;24.95;;;12.38;;
30874;SDS011;17581;43.222;27.924;2023-03-25T01:21:55;26.48;;;13.30;;
30874;SDS011;17581;43.222;27.924;2023-03-25T01:24:21;15.88;;;10.45;;
30874;SDS011;17581;43.222;27.924;2023-03-25T01:26:47;14.75;;;9.27;;
30874;SDS011;17581;43.222;27.924;2023-03-25T01:29:13;14.82;;;9.75;;
30874;SDS011;17581;43.222;27.924;2023-03-25T01:31:40;22.13;;;10.02;;
30874;SDS011;17581;43.222;27.924;2023-03-25T01:34:05;16.52;;;9.57;;
30874;SDS011;17581;43.222;27.924;2023-03-25T01:36:31;16.45;;;9.57;;
30874;SDS011;17581;43.222;27.924;2023-03-25T01:38:58;15.52;;;8.95;;
30874;SDS011;17581;43.222;27.924;2023-03-25T01:41:24;33.13;;;9.82;;
30874;SDS011;17581;43.222;27.924;2023-03-25T01:44:07;16.85;;;8.00;;
30874;SDS011;17581;43.222;27.924;2023-03-25T01:46:39;12.20;;;7.80;;
30874;SDS011;17581;43.222;27.924;2023-03-25T01:49:09;17.77;;;9.07;;
30874;SDS011;17581;43.222;27.924;2023-03-25T01:51:39;17.25;;;9.60;;
30874;SDS011;17581;43.222;27.924;2023-03-25T01:54:09;16.00;;;7.85;;
30874;SDS011;17581;43.222;27.924;2023-03-25T01:56:37;12.88;;;8.55;;
30874;SDS011;17581;43.222;27.924;2023-03-25T01:59:06;10.73;;;7.45;;
30874;SDS011;17581;43.222;27.924;2023-03-25T02:01:35;19.10;;;7.75;;
30874;SDS011;17581;43.222;27.924;2023-03-25T02:04:01;13.10;;;8.80;;
30874;SDS011;17581;43.222;27.924;2023-03-25T02:06:44;12.25;;;8.45;;
30874;SDS011;17581;43.222;27.924;2023-03-25T02:09:14;42.13;;;10.82;;
30874;SDS011;17581;43.222;27.924;2023-03-25T02:11:42;13.00;;;8.57;;
30874;SDS011;17581;43.222;27.924;2023-03-25T02:14:12;20.10;;;10.02;;
30874;SDS011;17581;43.222;27.924;2023-03-25T02:16:45;13.02;;;9.65;;
30874;SDS011;17581;43.222;27.924;2023-03-25T02:30:42;12.73;;;9.40;;
30874;SDS011;17581;43.222;27.924;2023-03-25T02:41:54;11.20;;;8.20;;
30874;SDS011;17581;43.222;27.924;2023-03-25T02:46:59;15.18;;;8.82;;
30874;SDS011;17581;43.222;27.924;2023-03-25T02:49:29;12.60;;;9.32;;
30874;SDS011;17581;43.222;27.924;2023-03-25T02:52:10;14.05;;;8.82;;
30874;SDS011;17581;43.222;27.924;2023-03-25T02:54:40;16.92;;;9.77;;
30874;SDS011;17581;43.222;27.924;2023-03-25T02:57:09;13.55;;;8.95;;
30874;SDS011;17581;43.222;27.924;2023-03-25T02:59:38;14.77;;;10.55;;
30874;SDS011;17581;43.222;27.924;2023-03-25T03:02:07;17.23;;;9.00;;
30874;SDS011;17581;43.222;27.924;2023-03-25T03:04:44;14.25;;;8.90;;
30874;SDS011;17581;43.222;27.924;2023-03-25T03:10:06;12.75;;;8.95;;
30874;SDS011;17581;43.222;27.924;2023-03-25T03:19:01;12.10;;;8.90;;
30874;SDS011;17581;43.222;27.924;2023-03-25T03:24:55;11.93;;;8.70;;
30874;SDS011;17581;43.222;27.924;2023-03-25T03:32:55;35.40;;;11.73;;
30874;SDS011;17581;43.222;27.924;2023-03-25T03:35:34;14.65;;;10.15;;
30874;SDS011;17581;43.222;27.924;2023-03-25T03:38:06;21.23;;;10.48;;
30874;SDS011;17581;43.222;27.924;2023-03-25T03:40:37;14.50;;;10.32;;
30874;SDS011;17581;43.222;27.924;2023-03-25T03:43:06;29.52;;;11.65;;
30874;SDS011;17581;43.222;27.924;2023-03-25T03:45:39;18.38;;;9.68;;
30874;SDS011;17581;43.222;27.924;2023-03-25T03:48:09;18.58;;;11.32;;
30874;SDS011;17581;43.222;27.924;2023-03-25T03:50:42;16.98;;;9.85;;
30874;SDS011;17581;43.222;27.924;2023-03-25T03:53:22;32.85;;;12.63;;
30874;SDS011;17581;43.222;27.924;2023-03-25T03:55:58;16.77;;;11.27;;
30874;SDS011;17581;43.222;27.924;2023-03-25T03:58:35;18.33;;;12.10;;
30874;SDS011;17581;43.222;27.924;2023-03-25T04:04:15;23.40;;;11.43;;
30874;SDS011;17581;43.222;27.924;2023-03-25T04:06:49;15.90;;;11.57;;
30874;SDS011;17581;43.222;27.924;2023-03-25T04:14:42;19.30;;;11.57;;
30874;SDS011;17581;43.222;27.924;2023-03-25T04:17:08;15.48;;;10.73;;
30874;SDS011;17581;43.222;27.924;2023-03-25T04:19:34;18.33;;;12.20;;
30874;SDS011;17581;43.222;27.924;2023-03-25T04:22:00;19.00;;;12.88;;
30874;SDS011;17581;43.222;27.924;2023-03-25T04:24:27;25.73;;;13.57;;
30874;SDS011;17581;43.222;27.924;2023-03-25T04:26:56;20.00;;;11.77;;
30874;SDS011;17581;43.222;27.924;2023-03-25T04:29:23;16.30;;;11.95;;
30874;SDS011;17581;43.222;27.924;2023-03-25T04:31:50;19.38;;;12.50;;
30874;SDS011;17581;43.222;27.924;2023-03-25T04:34:18;21.70;;;12.80;;
30874;SDS011;17581;43.222;27.924;2023-03-25T04:36:44;17.83;;;10.63;;
30874;SDS011;17581;43.222;27.924;2023-03-25T04:39:10;42.85;;;16.88;;
30874;SDS011;17581;43.222;27.924;2023-03-25T04:41:36;34.55;;;13.88;;
30874;SDS011;17581;43.222;27.924;2023-03-25T04:44:03;17.85;;;12.40;;
30874;SDS011;17581;43.222;27.924;2023-03-25T04:46:31;24.40;;;13.18;;
30874;SDS011;17581;43.222;27.924;2023-03-25T04:48:57;43.08;;;14.27;;
30874;SDS011;17581;43.222;27.924;2023-03-25T04:51:24;22.77;;;11.30;;
30874;SDS011;17581;43.222;27.924;2023-03-25T04:53:49;29.98;;;12.73;;
30874;SDS011;17581;43.222;27.924;2023-03-25T04:56:15;29.33;;;12.38;;
30874;SDS011;17581;43.222;27.924;2023-03-25T04:58:43;20.25;;;12.23;;
30874;SDS011;17581;43.222;27.924;2023-03-25T05:01:26;26.73;;;12.98;;
30874;SDS011;17581;43.222;27.924;2023-03-25T05:03:59;16.05;;;10.55;;
30874;SDS011;17581;43.222;27.924;2023-03-25T05:06:34;20.17;;;12.50;;
30874;SDS011;17581;43.222;27.924;2023-03-25T05:09:03;30.60;;;13.95;;
30874;SDS011;17581;43.222;27.924;2023-03-25T05:11:31;34.53;;;15.25;;
30874;SDS011;17581;43.222;27.924;2023-03-25T05:13:58;25.75;;;14.98;;
30874;SDS011;17581;43.222;27.924;2023-03-25T05:16:24;18.55;;;11.68;;
30874;SDS011;17581;43.222;27.924;2023-03-25T05:18:49;21.52;;;13.07;;
30874;SDS011;17581;43.222;27.924;2023-03-25T05:21:15;28.50;;;10.95;;
30874;SDS011;17581;43.222;27.924;2023-03-25T05:23:41;26.10;;;13.38;;
30874;SDS011;17581;43.222;27.924;2023-03-25T05:26:07;38.90;;;13.27;;
30874;SDS011;17581;43.222;27.924;2023-03-25T05:28:34;26.48;;;12.25;;
30874;SDS011;17581;43.222;27.924;2023-03-25T05:31:00;18.83;;;12.18;;
30874;SDS011;17581;43.222;27.924;2023-03-25T05:33:32;22.98;;;12.88;;
30874;SDS011;17581;43.222;27.924;2023-03-25T05:35:58;21.67;;;11.13;;
30874;SDS011;17581;43.222;27.924;2023-03-25T05:38:23;19.75;;;12.20;;
30874;SDS011;17581;43.222;27.924;2023-03-25T05:40:50;36.53;;;12.07;;
30874;SDS011;17581;43.222;27.924;2023-03-25T05:43:15;20.70;;;11.55;;
30874;SDS011;17581;43.222;27.924;2023-03-25T05:45:41;23.80;;;12.90;;
30874;SDS011;17581;43.222;27.924;2023-03-25T05:48:08;24.88;;;12.95;;
30874;SDS011;17581;43.222;27.924;2023-03-25T05:50:35;56.47;;;14.88;;
30874;SDS011;17581;43.222;27.924;2023-03-25T05:53:02;21.25;;;12.98;;
30874;SDS011;17581;43.222;27.924;2023-03-25T05:55:28;26.65;;;14.38;;
30874;SDS011;17581;43.222;27.924;2023-03-25T05:57:54;28.58;;;13.18;;
30874;SDS011;17581;43.222;27.924;2023-03-25T06:00:21;32.30;;;13.73;;
30874;SDS011;17581;43.222;27.924;2023-03-25T06:02:47;33.53;;;14.45;;
30874;SDS011;17581;43.222;27.924;2023-03-25T06:05:13;27.15;;;12.55;;
30874;SDS011;17581;43.222;27.924;2023-03-25T06:07:40;50.15;;;17.75;;
30874;SDS011;17581;43.222;27.924;2023-03-25T06:10:08;32.22;;;14.30;;
30874;SDS011;17581;43.222;27.924;2023-03-25T06:12:34;18.83;;;12.30;;
30874;SDS011;17581;43.222;27.924;2023-03-25T06:15:06;33.97;;;12.93;;
30874;SDS011;17581;43.222;27.924;2023-03-25T06:17:33;27.17;;;12.57;;
30874;SDS011;17581;43.222;27.924;2023-03-25T06:20:02;40.47;;;15.02;;
30874;SDS011;17581;43.222;27.924;2023-03-25T06:22:41;36.58;;;16.17;;
30874;SDS011;17581;43.222;27.924;2023-03-25T06:25:09;28.05;;;14.80;;
30874;SDS011;17581;43.222;27.924;2023-03-25T06:27:36;64.47;;;16.45;;
30874;SDS011;17581;43.222;27.924;2023-03-25T06:30:05;48.42;;;15.68;;
30874;SDS011;17581;43.222;27.924;2023-03-25T06:32:35;90.75;;;16.02;;
30874;SDS011;17581;43.222;27.924;2023-03-25T06:35:02;40.95;;;14.75;;
30874;SDS011;17581;43.222;27.924;2023-03-25T06:37:29;31.40;;;14.65;;
30874;SDS011;17581;43.222;27.924;2023-03-25T06:39:55;39.88;;;13.90;;
30874;SDS011;17581;43.222;27.924;2023-03-25T06:42:23;32.08;;;15.98;;
30874;SDS011;17581;43.222;27.924;2023-03-25T06:44:49;50.88;;;17.70;;
30874;SDS011;17581;43.222;27.924;2023-03-25T06:47:14;41.08;;;16.08;;
30874;SDS011;17581;43.222;27.924;2023-03-25T06:49:40;48.17;;;14.98;;
30874;SDS011;17581;43.222;27.924;2023-03-25T06:52:06;25.63;;;13.70;;
30874;SDS011;17581;43.222;27.924;2023-03-25T06:54:31;42.53;;;17.13;;
30874;SDS011;17581;43.222;27.924;2023-03-25T06:56:57;32.58;;;15.43;;
30874;SDS011;17581;43.222;27.924;2023-03-25T06:59:22;34.42;;;14.25;;
30874;SDS011;17581;43.222;27.924;2023-03-25T07:01:49;36.08;;;16.70;;
30874;SDS011;17581;43.222;27.924;2023-03-25T07:04:14;39.67;;;15.13;;
30874;SDS011;17581;43.222;27.924;2023-03-25T07:06:40;36.30;;;16.33;;
30874;SDS011;17581;43.222;27.924;2023-03-25T07:09:07;56.95;;;17.13;;
30874;SDS011;17581;43.222;27.924;2023-03-25T07:11:32;28.02;;;15.50;;
30874;SDS011;17581;43.222;27.924;2023-03-25T07:13:58;29.33;;;13.45;;
30874;SDS011;17581;43.222;27.924;2023-03-25T07:16:24;27.45;;;12.57;;
30874;SDS011;17581;43.222;27.924;2023-03-25T07:18:50;29.02;;;11.88;;
30874;SDS011;17581;43.222;27.924;2023-03-25T07:21:16;29.58;;;14.68;;
30874;SDS011;17581;43.222;27.924;2023-03-25T07:23:43;40.60;;;16.08;;
30874;SDS011;17581;43.222;27.924;2023-03-25T07:26:08;52.92;;;16.58;;
30874;SDS011;17581;43.222;27.924;2023-03-25T07:28:34;44.97;;;17.15;;
30874;SDS011;17581;43.222;27.924;2023-03-25T07:31:04;27.77;;;16.42;;
30874;SDS011;17581;43.222;27.924;2023-03-25T07:33:30;57.72;;;19.58;;
30874;SDS011;17581;43.222;27.924;2023-03-25T07:35:56;60.28;;;19.83;;
30874;SDS011;17581;43.222;27.924;2023-03-25T07:38:21;43.50;;;19.45;;
30874;SDS011;17581;43.222;27.924;2023-03-25T07:40:46;38.85;;;18.95;;
30874;SDS011;17581;43.222;27.924;2023-03-25T07:43:12;33.95;;;20.38;;
30874;SDS011;17581;43.222;27.924;2023-03-25T07:45:37;56.28;;;20.83;;
30874;SDS011;17581;43.222;27.924;2023-03-25T07:48:03;54.30;;;20.17;;
30874;SDS011;17581;43.222;27.924;2023-03-25T07:50:28;105.20;;;23.10;;
30874;SDS011;17581;43.222;27.924;2023-03-25T07:52:54;38.42;;;17.13;;
30874;SDS011;17581;43.222;27.924;2023-03-25T07:55:20;33.50;;;16.77;;
30874;SDS011;17581;43.222;27.924;2023-03-25T07:57:45;41.53;;;16.88;;
30874;SDS011;17581;43.222;27.924;2023-03-25T08:00:11;45.78;;;16.50;;
30874;SDS011;17581;43.222;27.924;2023-03-25T08:02:37;40.70;;;17.17;;
30874;SDS011;17581;43.222;27.924;2023-03-25T08:05:03;55.75;;;17.67;;
30874;SDS011;17581;43.222;27.924;2023-03-25T08:07:30;45.85;;;17.58;;
30874;SDS011;17581;43.222;27.924;2023-03-25T08:09:56;40.95;;;17.08;;
30874;SDS011;17581;43.222;27.924;2023-03-25T08:12:22;39.83;;;16.27;;
30874;SDS011;17581;43.222;27.924;2023-03-25T08:14:47;43.55;;;17.75;;
30874;SDS011;17581;43.222;27.924;2023-03-25T08:17:12;30.98;;;15.60;;
30874;SDS011;17581;43.222;27.924;2023-03-25T08:19:38;55.53;;;16.67;;
30874;SDS011;17581;43.222;27.924;2023-03-25T08:22:03;36.90;;;17.75;;
30874;SDS011;17581;43.222;27.924;2023-03-25T08:24:29;45.35;;;16.52;;
30874;SDS011;17581;43.222;27.924;2023-03-25T08:26:56;54.03;;;18.67;;
30874;SDS011;17581;43.222;27.924;2023-03-25T08:29:24;45.65;;;16.95;;
30874;SDS011;17581;43.222;27.924;2023-03-25T08:31:51;115.43;;;27.88;;
30874;SDS011;17581;43.222;27.924;2023-03-25T08:34:18;39.40;;;17.88;;
30874;SDS011;17581;43.222;27.924;2023-03-25T08:36:45;44.60;;;17.33;;
30874;SDS011;17581;43.222;27.924;2023-03-25T08:39:10;71.95;;;19.85;;
30874;SDS011;17581;43.222;27.924;2023-03-25T08:41:37;35.65;;;18.23;;
30874;SDS011;17581;43.222;27.924;2023-03-25T08:44:03;41.03;;;17.45;;
30874;SDS011;17581;43.222;27.924;2023-03-25T08:46:29;70.28;;;21.05;;
30874;SDS011;17581;43.222;27.924;2023-03-25T08:48:55;49.70;;;19.10;;
30874;SDS011;17581;43.222;27.924;2023-03-25T08:51:20;34.67;;;19.23;;
30874;SDS011;17581;43.222;27.924;2023-03-25T08:53:46;41.95;;;19.75;;
30874;SDS011;17581;43.222;27.924;2023-03-25T08:56:12;37.25;;;19.48;;
30874;SDS011;17581;43.222;27.924;2023-03-25T08:58:37;56.85;;;19.30;;
30874;SDS011;17581;43.222;27.924;2023-03-25T09:01:03;40.65;;;17.88;;
30874;SDS011;17581;43.222;27.924;2023-03-25T09:03:29;31.23;;;18.15;;
30874;SDS011;17581;43.222;27.924;2023-03-25T09:05:54;47.45;;;21.52;;
30874;SDS011;17581;43.222;27.924;2023-03-25T09:08:20;50.28;;;19.85;;
30874;SDS011;17581;43.222;27.924;2023-03-25T09:10:46;50.72;;;16.70;;
30874;SDS011;17581;43.222;27.924;2023-03-25T09:13:11;43.42;;;17.38;;
30874;SDS011;17581;43.222;27.924;2023-03-25T09:15:37;79.18;;;20.98;;
30874;SDS011;17581;43.222;27.924;2023-03-25T09:18:02;44.45;;;18.95;;
30874;SDS011;17581;43.222;27.924;2023-03-25T09:20:29;42.05;;;18.67;;
30874;SDS011;17581;43.222;27.924;2023-03-25T09:22:55;72.75;;;20.85;;
30874;SDS011;17581;43.222;27.924;2023-03-25T09:25:21;42.47;;;19.05;;
30874;SDS011;17581;43.222;27.924;2023-03-25T09:27:47;50.83;;;19.50;;
30874;SDS011;17581;43.222;27.924;2023-03-25T09:30:12;36.47;;;18.15;;
30874;SDS011;17581;43.222;27.924;2023-03-25T09:32:39;55.13;;;19.70;;
30874;SDS011;17581;43.222;27.924;2023-03-25T09:35:05;55.53;;;21.20;;
30874;SDS011;17581;43.222;27.924;2023-03-25T09:37:31;41.03;;;19.08;;
30874;SDS011;17581;43.222;27.924;2023-03-25T09:39:57;34.22;;;16.95;;
30874;SDS011;17581;43.222;27.924;2023-03-25T09:47:29;77.30;;;24.00;;
30874;SDS011;17581;43.222;27.924;2023-03-25T09:49:58;58.80;;;19.67;;
30874;SDS011;17581;43.222;27.924;2023-03-25T09:52:33;49.15;;;18.73;;
30874;SDS011;17581;43.222;27.924;2023-03-25T09:55:06;39.58;;;17.25;;
30874;SDS011;17581;43.222;27.924;2023-03-25T09:57:37;52.25;;;22.85;;
30874;SDS011;17581;43.222;27.924;2023-03-25T10:00:11;70.97;;;24.10;;
30874;SDS011;17581;43.222;27.924;2023-03-25T10:02:45;40.33;;;20.98;;
30874;SDS011;17581;43.222;27.924;2023-03-25T10:05:19;41.90;;;20.55;;
30874;SDS011;17581;43.222;27.924;2023-03-25T10:13:21;132.93;;;29.27;;
30874;SDS011;17581;43.222;27.924;2023-03-25T10:15:53;53.45;;;20.75;;
30874;SDS011;17581;43.222;27.924;2023-03-25T10:21:24;42.72;;;20.90;;
30874;SDS011;17581;43.222;27.924;2023-03-25T10:24:05;61.05;;;24.40;;
30874;SDS011;17581;43.222;27.924;2023-03-25T10:29:20;46.53;;;23.30;;
30874;SDS011;17581;43.222;27.924;2023-03-25T10:32:02;73.32;;;26.42;;
30874;SDS011;17581;43.222;27.924;2023-03-25T10:34:36;45.17;;;26.85;;
30874;SDS011;17581;43.222;27.924;2023-03-25T10:37:11;53.63;;;31.08;;
30874;SDS011;17581;43.222;27.924;2023-03-25T10:39:42;45.20;;;27.33;;
30874;SDS011;17581;43.222;27.924;2023-03-25T10:44:50;58.92;;;27.80;;
30874;SDS011;17581;43.222;27.924;2023-03-25T10:47:17;52.10;;;25.95;;
30874;SDS011;17581;43.222;27.924;2023-03-25T10:49:46;57.35;;;29.63;;
30874;SDS011;17581;43.222;27.924;2023-03-25T10:52:13;58.90;;;31.15;;
30874;SDS011;17581;43.222;27.924;2023-03-25T10:54:40;62.63;;;32.40;;
30874;SDS011;17581;43.222;27.924;2023-03-25T10:57:11;61.17;;;32.78;;
30874;SDS011;17581;43.222;27.924;2023-03-25T11:02:30;53.60;;;28.90;;
30874;SDS011;17581;43.222;27.924;2023-03-25T11:05:01;55.13;;;32.97;;
30874;SDS011;17581;43.222;27.924;2023-03-25T11:07:34;77.00;;;34.15;;
30874;SDS011;17581;43.222;27.924;2023-03-25T11:10:09;63.93;;;32.37;;
30874;SDS011;17581;43.222;27.924;2023-03-25T11:12:35;57.88;;;35.13;;
30874;SDS011;17581;43.222;27.924;2023-03-25T11:15:01;67.40;;;34.28;;
30874;SDS011;17581;43.222;27.924;2023-03-25T11:17:27;75.75;;;36.08;;
30874;SDS011;17581;43.222;27.924;2023-03-25T11:19:58;79.35;;;34.42;;
30874;SDS011;17581;43.222;27.924;2023-03-25T11:22:29;50.90;;;31.10;;
30874;SDS011;17581;43.222;27.924;2023-03-25T11:24:59;57.95;;;30.70;;
30874;SDS011;17581;43.222;27.924;2023-03-25T11:27:29;61.30;;;33.22;;
30874;SDS011;17581;43.222;27.924;2023-03-25T11:30:02;79.22;;;34.97;;
30874;SDS011;17581;43.222;27.924;2023-03-25T11:32:38;63.50;;;33.42;;
30874;SDS011;17581;43.222;27.924;2023-03-25T11:35:15;90.03;;;36.50;;
30874;SDS011;17581;43.222;27.924;2023-03-25T11:37:47;63.47;;;30.20;;
30874;SDS011;17581;43.222;27.924;2023-03-25T11:40:19;64.40;;;34.28;;
30874;SDS011;17581;43.222;27.924;2023-03-25T11:42:45;72.95;;;33.30;;
30874;SDS011;17581;43.222;27.924;2023-03-25T11:45:33;64.20;;;30.52;;
30874;SDS011;17581;43.222;27.924;2023-03-25T11:48:10;72.57;;;33.80;;
30874;SDS011;17581;43.222;27.924;2023-03-25T11:50:47;68.80;;;34.38;;
30874;SDS011;17581;43.222;27.924;2023-03-25T11:53:18;98.40;;;32.38;;
30874;SDS011;17581;43.222;27.924;2023-03-25T11:55:47;66.97;;;30.27;;
30874;SDS011;17581;43.222;27.924;2023-03-25T11:58:16;71.63;;;32.17;;
30874;SDS011;17581;43.222;27.924;2023-03-25T12:00:48;56.58;;;31.58;;
30874;SDS011;17581;43.222;27.924;2023-03-25T12:03:19;63.08;;;32.97;;
30874;SDS011;17581;43.222;27.924;2023-03-25T12:06:14;82.30;;;36.63;;
30874;SDS011;17581;43.222;27.924;2023-03-25T12:08:52;70.60;;;34.72;;
30874;SDS011;17581;43.222;27.924;2023-03-25T12:11:27;56.47;;;31.05;;
30874;SDS011;17581;43.222;27.924;2023-03-25T12:19:40;60.17;;;34.05;;
30874;SDS011;17581;43.222;27.924;2023-03-25T12:35:22;53.08;;;30.90;;
30874;SDS011;17581;43.222;27.924;2023-03-25T13:08:17;68.85;;;31.70;;
30874;SDS011;17581;43.222;27.924;2023-03-25T13:10:50;74.03;;;33.20;;
30874;SDS011;17581;43.222;27.924;2023-03-25T13:13:23;68.88;;;31.80;;
30874;SDS011;17581;43.222;27.924;2023-03-25T13:16:09;78.75;;;31.45;;
30874;SDS011;17581;43.222;27.924;2023-03-25T13:21:34;55.03;;;30.92;;
30874;SDS011;17581;43.222;27.924;2023-03-25T13:24:05;64.93;;;32.55;;
30874;SDS011;17581;43.222;27.924;2023-03-25T13:26:36;58.88;;;31.02;;
30874;SDS011;17581;43.222;27.924;2023-03-25T13:29:20;79.68;;;36.05;;
30874;SDS011;17581;43.222;27.924;2023-03-25T13:31:48;67.93;;;36.50;;
30874;SDS011;17581;43.222;27.924;2023-03-25T13:39:34;60.55;;;36.85;;
30874;SDS011;17581;43.222;27.924;2023-03-25T13:42:06;75.22;;;37.25;;
30874;SDS011;17581;43.222;27.924;2023-03-25T13:44:37;60.13;;;30.95;;
30874;SDS011;17581;43.222;27.924;2023-03-25T13:47:17;61.22;;;30.30;;
30874;SDS011;17581;43.222;27.924;2023-03-25T13:49:47;62.13;;;31.40;;
30874;SDS011;17581;43.222;27.924;2023-03-25T13:52:14;57.03;;;33.20;;
30874;SDS011;17581;43.222;27.924;2023-03-25T13:54:42;59.60;;;34.38;;
30874;SDS011;17581;43.222;27.924;2023-03-25T14:00:25;69.70;;;37.28;;
30874;SDS011;17581;43.222;27.924;2023-03-25T14:09:36;86.43;;;39.50;;
30874;SDS011;17581;43.222;27.924;2023-03-25T14:12:16;72.90;;;40.08;;
30874;SDS011;17581;43.222;27.924;2023-03-25T14:14:57;74.97;;;39.65;;
30874;SDS011;17581;43.222;27.924;2023-03-25T14:17:37;122.20;;;45.97;;
30874;SDS011;17581;43.222;27.924;2023-03-25T14:20:05;88.15;;;41.17;;
30874;SDS011;17581;43.222;27.924;2023-03-25T14:22:43;87.85;;;41.13;;
30874;SDS011;17581;43.222;27.924;2023-03-25T14:25:28;78.43;;;39.47;;
30874;SDS011;17581;43.222;27.924;2023-03-25T14:27:56;81.75;;;39.63;;
30874;SDS011;17581;43.222;27.924;2023-03-25T14:30:25;78.18;;;40.05;;
30874;SDS011;17581;43.222;27.924;2023-03-25T14:32:55;58.33;;;34.70;;
30874;SDS011;17581;43.222;27.924;2023-03-25T14:48:37;112.40;;;43.10;;
30874;SDS011;17581;43.222;27.924;2023-03-25T14:56:41;111.88;;;47.15;;
30874;SDS011;17581;43.222;27.924;2023-03-25T14:59:14;96.95;;;45.08;;
30874;SDS011;17581;43.222;27.924;2023-03-25T15:01:43;91.43;;;40.10;;
30874;SDS011;17581;43.222;27.924;2023-03-25T15:04:12;87.32;;;42.83;;
30874;SDS011;17581;43.222;27.924;2023-03-25T15:06:46;79.90;;;38.95;;
30874;SDS011;17581;43.222;27.924;2023-03-25T15:09:13;80.50;;;42.83;;
30874;SDS011;17581;43.222;27.924;2023-03-25T15:11:51;69.80;;;37.10;;
30874;SDS011;17581;43.222;27.924;2023-03-25T15:14:21;73.88;;;41.58;;
30874;SDS011;17581;43.222;27.924;2023-03-25T15:16:55;72.03;;;39.38;;
30874;SDS011;17581;43.222;27.924;2023-03-25T15:19:26;76.72;;;35.35;;
30874;SDS011;17581;43.222;27.924;2023-03-25T15:24:27;52.50;;;30.30;;
30874;SDS011;17581;43.222;27.924;2023-03-25T15:26:56;59.63;;;29.90;;
30874;SDS011;17581;43.222;27.924;2023-03-25T15:32:17;48.33;;;28.58;;
30874;SDS011;17581;43.222;27.924;2023-03-25T15:56:47;56.95;;;34.97;;
30874;SDS011;17581;43.222;27.924;2023-03-25T16:01:54;56.60;;;32.80;;
30874;SDS011;17581;43.222;27.924;2023-03-25T16:04:30;65.22;;;37.22;;
30874;SDS011;17581;43.222;27.924;2023-03-25T16:07:02;74.53;;;35.53;;
30874;SDS011;17581;43.222;27.924;2023-03-25T16:09:30;63.85;;;35.72;;
30874;SDS011;17581;43.222;27.924;2023-03-25T16:12:01;79.88;;;34.63;;
30874;SDS011;17581;43.222;27.924;2023-03-25T16:14:31;59.42;;;33.78;;
30874;SDS011;17581;43.222;27.924;2023-03-25T16:16:58;59.13;;;32.80;;
30874;SDS011;17581;43.222;27.924;2023-03-25T16:19:31;56.17;;;32.75;;
30874;SDS011;17581;43.222;27.924;2023-03-25T16:22:25;77.82;;;36.42;;
30874;SDS011;17581;43.222;27.924;2023-03-25T16:24:51;64.18;;;34.08;;
30874;SDS011;17581;43.222;27.924;2023-03-25T16:27:28;65.30;;;36.17;;
30874;SDS011;17581;43.222;27.924;2023-03-25T16:29:57;44.25;;;25.55;;
30874;SDS011;17581;43.222;27.924;2023-03-25T16:32:24;44.40;;;25.38;;
30874;SDS011;17581;43.222;27.924;2023-03-25T16:34:55;52.33;;;31.05;;
30874;SDS011;17581;43.222;27.924;2023-03-25T16:37:21;53.35;;;27.92;;
30874;SDS011;17581;43.222;27.924;2023-03-25T16:39:52;48.38;;;27.02;;
30874;SDS011;17581;43.222;27.924;2023-03-25T16:42:29;48.95;;;27.80;;
30874;SDS011;17581;43.222;27.924;2023-03-25T16:44:58;50.20;;;29.17;;
30874;SDS011;17581;43.222;27.924;2023-03-25T16:47:24;75.90;;;33.72;;
30874;SDS011;17581;43.222;27.924;2023-03-25T16:49:51;94.22;;;35.53;;
30874;SDS011;17581;43.222;27.924;2023-03-25T16:52:24;90.80;;;35.92;;
30874;SDS011;17581;43.222;27.924;2023-03-25T16:57:18;90.20;;;39.42;;
30874;SDS011;17581;43.222;27.924;2023-03-25T16:59:49;84.03;;;41.50;;
30874;SDS011;17581;43.222;27.924;2023-03-25T17:02:27;73.47;;;38.70;;
30874;SDS011;17581;43.222;27.924;2023-03-25T17:05:11;91.10;;;42.30;;
30874;SDS011;17581;43.222;27.924;2023-03-25T17:07:43;64.68;;;28.13;;
30874;SDS011;17581;43.222;27.924;2023-03-25T17:10:16;77.40;;;34.95;;
30874;SDS011;17581;43.222;27.924;2023-03-25T17:12:43;87.22;;;37.50;;
30874;SDS011;17581;43.222;27.924;2023-03-25T17:15:14;82.50;;;37.40;;
30874;SDS011;17581;43.222;27.924;2023-03-25T17:17:44;116.93;;;37.80;;
30874;SDS011;17581;43.222;27.924;2023-03-25T17:20:36;66.28;;;29.33;;
30874;SDS011;17581;43.222;27.924;2023-03-25T17:23:04;70.72;;;29.40;;
30874;SDS011;17581;43.222;27.924;2023-03-25T17:25:49;63.65;;;27.30;;
30874;SDS011;17581;43.222;27.924;2023-03-25T17:28:30;44.30;;;26.63;;
30874;SDS011;17581;43.222;27.924;2023-03-25T17:31:15;52.60;;;26.88;;
30874;SDS011;17581;43.222;27.924;2023-03-25T17:36:24;56.70;;;27.80;;